createdAt,value
2022-10-20T00:00:33.676Z,4.35
2022-10-20T00:01:36.722Z,3.70
2022-10-20T00:02:39.575Z,4.50
2022-10-20T00:03:42.644Z,4.38
2022-10-20T00:04:45.225Z,4.28
2022-10-20T00:05:48.111Z,3.90
2022-10-20T00:06:50.640Z,4.03
2022-10-20T00:07:53.164Z,4.22
2022-10-20T00:08:56.749Z,3.85
2022-10-20T00:09:59.425Z,3.90
2022-10-20T00:11:02.242Z,4.15
2022-10-20T00:12:05.574Z,3.75
2022-10-20T00:13:08.158Z,3.55
2022-10-20T00:14:10.623Z,3.63
2022-10-20T00:15:13.198Z,3.92
2022-10-20T00:16:16.312Z,3.60
2022-10-20T00:17:18.758Z,4.35
2022-10-20T00:18:22.313Z,3.72
2022-10-20T00:19:24.902Z,4.75
2022-10-20T00:20:27.347Z,4.05
2022-10-20T00:21:29.870Z,4.43
2022-10-20T00:22:32.742Z,4.35
2022-10-20T00:23:35.773Z,4.72
2022-10-20T00:24:38.108Z,4.32
2022-10-20T00:25:40.870Z,4.60
2022-10-20T00:26:43.333Z,4.50
2022-10-20T00:27:45.796Z,3.80
2022-10-20T00:28:48.698Z,4.25
2022-10-20T00:29:51.190Z,4.40
2022-10-20T00:30:57.025Z,5.28
2022-10-20T00:31:59.427Z,4.32
2022-10-20T00:33:03.053Z,3.78
2022-10-20T00:34:05.702Z,4.10
2022-10-20T00:35:08.579Z,4.10
2022-10-20T00:36:14.492Z,4.57
2022-10-20T00:37:17.076Z,4.68
2022-10-20T00:38:19.683Z,4.32
2022-10-20T00:39:22.440Z,3.97
2022-10-20T00:40:25.063Z,4.20
2022-10-20T00:41:28.432Z,4.50
2022-10-20T00:42:31.159Z,4.50
2022-10-20T00:43:52.869Z,4.20
2022-10-20T00:44:58.406Z,3.95
2022-10-20T00:46:00.999Z,3.97
2022-10-20T00:47:03.535Z,3.65
2022-10-20T00:48:12.247Z,4.65
2022-10-20T00:49:23.263Z,4.25
2022-10-20T00:50:33.283Z,3.97
2022-10-20T00:51:35.716Z,4.72
2022-10-20T00:52:38.911Z,4.53
2022-10-20T00:53:41.580Z,4.22
2022-10-20T00:54:44.147Z,3.75
2022-10-20T00:55:48.714Z,3.63
2022-10-20T00:56:51.769Z,4.40
2022-10-20T00:57:56.507Z,3.30
2022-10-20T00:59:01.117Z,3.70
2022-10-20T01:00:06.090Z,4.40
2022-10-20T01:01:08.917Z,4.15
2022-10-20T01:02:12.137Z,4.35
2022-10-20T01:03:23.936Z,4.20
2022-10-20T01:04:28.485Z,4.60
2022-10-20T01:05:30.897Z,4.50
2022-10-20T01:06:33.579Z,3.95
2022-10-20T01:07:36.395Z,4.35
2022-10-20T01:08:39.285Z,4.38
2022-10-20T01:09:41.883Z,4.40
2022-10-20T01:11:13.988Z,4.40
2022-10-20T01:12:30.815Z,4.60
2022-10-20T01:13:52.757Z,4.25
2022-10-20T01:16:36.470Z,4.38
2022-10-20T01:17:40.082Z,4.50
2022-10-20T01:18:54.619Z,4.30
2022-10-20T01:20:36.789Z,4.40
2022-10-20T01:21:54.438Z,4.13
2022-10-20T01:23:02.084Z,4.28
2022-10-20T01:24:16.098Z,4.40
2022-10-20T01:25:45.485Z,5.35
2022-10-20T01:27:33.128Z,5.10
2022-10-20T01:28:43.581Z,4.97
2022-10-20T01:29:57.428Z,4.82
2022-10-20T01:31:03.468Z,4.80
2022-10-20T01:32:11.814Z,5.20
2022-10-20T01:33:37.630Z,4.57
2022-10-20T01:35:18.551Z,4.70
2022-10-20T01:36:39.384Z,4.50
2022-10-20T01:38:03.518Z,5.22
2022-10-20T01:39:15.429Z,4.80
2022-10-20T01:40:27.886Z,5.13
2022-10-20T01:41:36.460Z,5.47
2022-10-20T01:42:39.966Z,4.55
2022-10-20T01:43:43.977Z,4.70
2022-10-20T01:44:47.762Z,4.57
2022-10-20T01:45:51.480Z,4.78
2022-10-20T01:46:54.398Z,4.50
2022-10-20T01:47:58.237Z,4.40
2022-10-20T01:49:02.192Z,5.20
2022-10-20T01:50:06.146Z,4.47
2022-10-20T01:51:09.464Z,5.25
2022-10-20T01:52:13.025Z,4.68
2022-10-20T01:53:15.442Z,4.70
2022-10-20T01:54:25.939Z,5.07
2022-10-20T01:55:28.737Z,4.78
2022-10-20T01:56:47.425Z,4.55
2022-10-20T01:58:11.208Z,4.93
2022-10-20T01:59:20.969Z,5.00
2022-10-20T02:00:23.614Z,4.72
2022-10-20T02:02:01.166Z,4.63
2022-10-20T02:03:41.943Z,4.50
2022-10-20T02:05:07.530Z,4.65
2022-10-20T02:06:22.119Z,4.00
2022-10-20T02:07:28.576Z,4.60
2022-10-20T02:08:42.664Z,4.20
2022-10-20T02:09:49.200Z,5.00
2022-10-20T02:10:53.661Z,4.35
2022-10-20T02:12:04.095Z,6.15
2022-10-20T02:13:07.478Z,5.63
2022-10-20T02:14:12.930Z,4.95
2022-10-20T02:15:18.794Z,4.25
2022-10-20T02:16:30.169Z,5.45
2022-10-20T02:17:34.642Z,6.18
2022-10-20T02:18:41.240Z,5.18
2022-10-20T02:19:45.298Z,5.38
2022-10-20T02:20:51.181Z,5.15
2022-10-20T02:21:54.917Z,5.60
2022-10-20T02:22:58.978Z,5.35
2022-10-20T02:24:05.174Z,5.57
2022-10-20T02:25:11.311Z,5.65
2022-10-20T02:26:15.550Z,6.32
2022-10-20T02:27:22.560Z,5.90
2022-10-20T02:28:27.190Z,5.80
2022-10-20T02:29:34.149Z,6.20
2022-10-20T02:30:37.794Z,5.90
2022-10-20T02:31:40.655Z,5.72
2022-10-20T02:32:49.297Z,5.75
2022-10-20T02:33:52.777Z,5.47
2022-10-20T02:34:55.487Z,6.57
2022-10-20T02:35:59.655Z,6.28
2022-10-20T02:37:02.203Z,5.93
2022-10-20T02:38:04.730Z,5.93
2022-10-20T02:39:07.960Z,6.82
2022-10-20T02:40:11.166Z,6.47
2022-10-20T02:41:13.584Z,5.78
2022-10-20T02:42:17.343Z,4.97
2022-10-20T02:43:19.883Z,6.13
2022-10-20T02:44:23.128Z,5.32
2022-10-20T02:45:25.736Z,6.78
2022-10-20T02:46:28.513Z,5.97
2022-10-20T02:47:31.138Z,5.78
2022-10-20T02:48:33.648Z,6.03
2022-10-20T02:49:36.198Z,6.07
2022-10-20T02:50:39.203Z,6.13
2022-10-20T02:51:41.719Z,6.68
2022-10-20T02:52:44.358Z,5.85
2022-10-20T02:53:47.032Z,5.47
2022-10-20T02:54:49.599Z,5.75
2022-10-20T02:55:52.591Z,5.75
2022-10-20T02:56:55.557Z,5.50
2022-10-20T02:57:58.201Z,5.95
2022-10-20T02:59:00.761Z,6.13
2022-10-20T03:00:05.413Z,5.30
2022-10-20T03:01:10.416Z,5.90
2022-10-20T03:02:12.887Z,5.43
2022-10-20T03:03:15.421Z,6.20
2022-10-20T03:04:18.620Z,6.18
2022-10-20T03:05:24.100Z,5.75
2022-10-20T03:06:27.019Z,5.88
2022-10-20T03:07:29.509Z,5.82
2022-10-20T03:08:32.088Z,5.53
2022-10-20T03:09:35.004Z,5.85
2022-10-20T03:10:38.784Z,5.20
2022-10-20T03:11:41.387Z,4.72
2022-10-20T03:12:44.095Z,5.38
2022-10-20T03:13:46.776Z,5.18
2022-10-20T03:14:49.339Z,5.80
2022-10-20T03:15:51.789Z,5.10
2022-10-20T03:16:54.446Z,5.07
2022-10-20T03:17:57.009Z,5.45
2022-10-20T03:19:03.357Z,5.07
2022-10-20T03:20:10.176Z,5.45
2022-10-20T03:21:12.622Z,4.95
2022-10-20T03:22:15.044Z,4.95
2022-10-20T03:23:20.058Z,5.07
2022-10-20T03:24:22.840Z,5.15
2022-10-20T03:25:25.433Z,5.20
2022-10-20T03:26:28.146Z,5.60
2022-10-20T03:27:30.644Z,5.55
2022-10-20T03:28:33.240Z,5.65
2022-10-20T03:29:36.072Z,6.25
2022-10-20T03:30:38.569Z,5.32
2022-10-20T03:31:41.151Z,5.07
2022-10-20T03:32:43.632Z,5.20
2022-10-20T03:33:46.319Z,5.00
2022-10-20T03:34:48.729Z,5.50
2022-10-20T03:35:51.494Z,4.95
2022-10-20T03:36:54.136Z,5.60
2022-10-20T03:37:56.694Z,5.60
2022-10-20T03:38:59.209Z,5.90
2022-10-20T03:40:01.842Z,5.60
2022-10-20T03:41:04.513Z,6.00
2022-10-20T03:42:06.957Z,5.60
2022-10-20T03:43:09.351Z,5.85
2022-10-20T03:44:11.822Z,6.45
2022-10-20T03:45:17.780Z,6.10
2022-10-20T03:46:21.244Z,6.97
2022-10-20T03:47:24.094Z,5.88
2022-10-20T03:48:26.676Z,6.22
2022-10-20T03:49:29.336Z,5.43
2022-10-20T03:50:31.907Z,5.57
2022-10-20T03:51:34.537Z,5.80
2022-10-20T03:52:37.468Z,5.35
2022-10-20T03:53:40.159Z,6.20
2022-10-20T03:54:42.643Z,6.38
2022-10-20T03:55:45.210Z,6.50
2022-10-20T03:56:47.748Z,6.10
2022-10-20T03:57:50.177Z,5.85
2022-10-20T03:58:52.805Z,6.10
2022-10-20T03:59:55.443Z,6.15
2022-10-20T04:00:58.217Z,6.50
2022-10-20T04:02:00.912Z,5.53
2022-10-20T04:03:03.962Z,5.32
2022-10-20T04:04:06.497Z,5.57
2022-10-20T04:05:09.398Z,5.75
2022-10-20T04:06:15.530Z,5.90
2022-10-20T04:07:18.074Z,6.00
2022-10-20T04:08:20.450Z,5.13
2022-10-20T04:09:22.944Z,5.57
2022-10-20T04:10:25.512Z,6.13
2022-10-20T04:11:28.223Z,5.78
2022-10-20T04:12:31.222Z,5.25
2022-10-20T04:13:33.792Z,6.18
2022-10-20T04:14:36.287Z,5.68
2022-10-20T04:15:38.748Z,5.93
2022-10-20T04:16:42.132Z,5.93
2022-10-20T04:17:45.028Z,5.38
2022-10-20T04:18:47.594Z,5.13
2022-10-20T04:19:50.172Z,5.40
2022-10-20T04:20:52.696Z,6.05
2022-10-20T04:21:55.222Z,6.00
2022-10-20T04:22:57.693Z,5.65
2022-10-20T04:24:00.310Z,5.63
2022-10-20T04:25:02.887Z,5.10
2022-10-20T04:26:13.121Z,5.53
2022-10-20T04:27:15.751Z,6.20
2022-10-20T04:28:19.747Z,7.32
2022-10-20T04:29:22.362Z,8.10
2022-10-20T04:30:24.800Z,6.78
2022-10-20T04:31:27.357Z,5.55
2022-10-20T04:32:29.868Z,5.82
2022-10-20T04:33:32.577Z,5.10
2022-10-20T04:34:36.563Z,5.13
2022-10-20T04:35:39.965Z,5.43
2022-10-20T04:36:42.565Z,4.70
2022-10-20T04:37:45.144Z,5.47
2022-10-20T04:38:47.707Z,5.00
2022-10-20T04:39:53.139Z,5.32
2022-10-20T04:40:59.101Z,6.07
2022-10-20T04:42:04.362Z,5.45
2022-10-20T04:43:06.838Z,4.95
2022-10-20T04:44:09.353Z,5.30
2022-10-20T04:45:11.808Z,4.65
2022-10-20T04:46:14.155Z,6.30
2022-10-20T04:47:16.724Z,6.05
2022-10-20T04:48:19.337Z,6.47
2022-10-20T04:49:22.017Z,5.85
2022-10-20T04:50:24.690Z,4.93
2022-10-20T04:51:42.523Z,6.40
2022-10-20T04:52:44.946Z,5.18
2022-10-20T04:53:47.755Z,5.03
2022-10-20T04:54:50.547Z,4.70
2022-10-20T04:55:57.373Z,5.53
2022-10-20T04:56:59.917Z,5.30
2022-10-20T04:58:02.778Z,5.60
2022-10-20T04:59:09.496Z,6.07
2022-10-20T05:00:15.465Z,5.93
2022-10-20T05:01:18.765Z,5.97
2022-10-20T05:02:21.289Z,5.22
2022-10-20T05:03:23.716Z,5.30
2022-10-20T05:04:26.335Z,5.40
2022-10-20T05:05:28.793Z,6.35
2022-10-20T05:06:32.341Z,5.85
2022-10-20T05:07:35.369Z,5.75
2022-10-20T05:08:38.143Z,6.00
2022-10-20T05:09:40.793Z,4.80
2022-10-20T05:10:43.748Z,5.13
2022-10-20T05:11:46.578Z,5.22
2022-10-20T05:12:49.169Z,5.60
2022-10-20T05:13:51.782Z,6.28
2022-10-20T05:14:54.213Z,5.20
2022-10-20T05:15:56.936Z,5.53
2022-10-20T05:16:59.449Z,5.53
2022-10-20T05:18:02.162Z,6.45
2022-10-20T05:19:04.813Z,6.18
2022-10-20T05:20:07.702Z,6.00
2022-10-20T05:21:12.787Z,7.15
2022-10-20T05:22:15.274Z,5.85
2022-10-20T05:23:17.667Z,5.25
2022-10-20T05:24:22.025Z,5.95
2022-10-20T05:25:36.242Z,5.70
2022-10-20T05:26:39.661Z,6.00
2022-10-20T05:27:42.172Z,6.28
2022-10-20T05:28:48.946Z,6.03
2022-10-20T05:29:51.576Z,6.38
2022-10-20T05:30:57.774Z,6.05
2022-10-20T05:32:03.053Z,7.30
2022-10-20T05:33:05.652Z,6.25
2022-10-20T05:34:08.741Z,7.03
2022-10-20T05:35:11.139Z,6.47
2022-10-20T05:36:19.354Z,6.40
2022-10-20T05:37:37.974Z,6.53
2022-10-20T05:38:40.960Z,5.90
2022-10-20T05:39:43.783Z,5.70
2022-10-20T05:40:46.410Z,6.10
2022-10-20T05:41:48.939Z,6.97
2022-10-20T05:42:51.565Z,6.68
2022-10-20T05:43:57.311Z,7.07
2022-10-20T05:44:59.718Z,6.35
2022-10-20T05:46:03.172Z,5.78
2022-10-20T05:47:05.973Z,6.43
2022-10-20T05:48:08.451Z,5.57
2022-10-20T05:49:15.897Z,6.00
2022-10-20T05:50:18.651Z,5.65
2022-10-20T05:51:24.905Z,5.70
2022-10-20T05:52:27.377Z,5.07
2022-10-20T05:53:29.919Z,6.40
2022-10-20T05:54:32.503Z,5.78
2022-10-20T05:55:35.177Z,4.90
2022-10-20T05:56:40.403Z,5.28
2022-10-20T05:57:42.829Z,5.25
2022-10-20T05:58:47.299Z,5.65
2022-10-20T05:59:49.820Z,5.90
2022-10-20T06:00:53.816Z,5.20
2022-10-20T06:01:56.481Z,5.50
2022-10-20T06:02:59.147Z,5.90
2022-10-20T06:04:01.868Z,5.22
2022-10-20T06:05:04.662Z,5.70
2022-10-20T06:06:07.164Z,5.65
2022-10-20T06:07:12.477Z,5.70
2022-10-20T06:08:14.924Z,5.10
2022-10-20T06:09:17.962Z,5.10
2022-10-20T06:10:20.818Z,5.40
2022-10-20T06:11:24.104Z,5.05
2022-10-20T06:12:26.799Z,5.32
2022-10-20T06:13:29.438Z,5.13
2022-10-20T06:14:32.109Z,6.10
2022-10-20T06:15:34.864Z,6.72
2022-10-20T06:16:38.455Z,6.20
2022-10-20T06:17:40.994Z,6.57
2022-10-20T06:18:44.005Z,8.32
2022-10-20T06:19:46.437Z,6.38
2022-10-20T06:20:48.845Z,6.82
2022-10-20T06:21:51.764Z,7.38
2022-10-20T06:22:54.308Z,6.65
2022-10-20T06:23:59.320Z,6.93
2022-10-20T06:25:01.753Z,6.57
2022-10-20T06:26:13.158Z,6.38
2022-10-20T06:27:15.515Z,6.50
2022-10-20T06:28:17.981Z,6.07
2022-10-20T06:29:20.608Z,6.57
2022-10-20T06:30:23.026Z,6.07
2022-10-20T06:31:30.466Z,5.95
2022-10-20T06:32:33.052Z,6.38
2022-10-20T06:33:35.592Z,5.90
2022-10-20T06:34:38.160Z,5.72
2022-10-20T06:35:41.116Z,6.05
2022-10-20T06:36:44.205Z,5.65
2022-10-20T06:37:47.112Z,5.78
2022-10-20T06:38:53.663Z,5.75
2022-10-20T06:39:56.784Z,5.72
2022-10-20T06:41:07.137Z,6.50
2022-10-20T06:42:11.968Z,4.03
2022-10-20T06:43:20.903Z,6.30
2022-10-20T06:44:24.624Z,6.30
2022-10-20T06:45:27.139Z,5.90
2022-10-20T06:46:31.717Z,6.65
2022-10-20T06:47:34.321Z,6.70
2022-10-20T06:48:37.712Z,6.78
2022-10-20T06:49:40.242Z,6.85
2022-10-20T06:50:42.859Z,6.05
2022-10-20T06:51:45.361Z,6.68
2022-10-20T06:52:47.855Z,6.15
2022-10-20T06:53:51.270Z,6.55
2022-10-20T06:54:54.357Z,6.38
2022-10-20T06:56:00.474Z,5.70
2022-10-20T06:57:02.859Z,6.15
2022-10-20T06:58:05.345Z,5.82
2022-10-20T06:59:07.821Z,6.07
2022-10-20T07:00:10.804Z,5.45
2022-10-20T07:01:17.360Z,5.78
2022-10-20T07:02:21.844Z,6.03
2022-10-20T07:03:24.390Z,5.53
2022-10-20T07:04:26.885Z,6.28
2022-10-20T07:05:30.010Z,5.93
2022-10-20T07:06:35.098Z,5.90
2022-10-20T07:07:37.713Z,6.70
2022-10-20T07:08:40.287Z,6.40
2022-10-20T07:09:42.674Z,6.32
2022-10-20T07:10:45.531Z,5.07
2022-10-20T07:11:52.361Z,6.38
2022-10-20T07:12:55.642Z,6.60
2022-10-20T07:13:59.399Z,7.18
2022-10-20T07:15:02.233Z,6.85
2022-10-20T07:16:06.181Z,6.15
2022-10-20T07:17:08.767Z,5.68
2022-10-20T07:18:11.341Z,6.15
2022-10-20T07:19:13.805Z,6.82
2022-10-20T07:20:16.342Z,6.28
2022-10-20T07:21:22.116Z,5.45
2022-10-20T07:22:24.695Z,6.10
2022-10-20T07:23:28.733Z,5.68
2022-10-20T07:24:31.311Z,5.72
2022-10-20T07:25:33.873Z,6.03
2022-10-20T07:26:38.514Z,6.10
2022-10-20T07:27:41.216Z,6.35
2022-10-20T07:28:45.254Z,6.50
2022-10-20T07:29:47.950Z,6.32
2022-10-20T07:30:50.683Z,6.18
2022-10-20T07:31:53.213Z,6.70
2022-10-20T07:32:55.818Z,6.15
2022-10-20T07:34:06.815Z,6.45
2022-10-20T07:35:16.125Z,6.65
2022-10-20T07:36:21.099Z,6.05
2022-10-20T07:37:23.633Z,6.63
2022-10-20T07:38:26.435Z,6.40
2022-10-20T07:39:29.100Z,5.80
2022-10-20T07:40:31.726Z,6.65
2022-10-20T07:41:37.466Z,6.82
2022-10-20T07:42:40.363Z,6.13
2022-10-20T07:43:43.350Z,6.30
2022-10-20T07:44:46.153Z,7.57
2022-10-20T07:45:48.650Z,6.30
2022-10-20T07:46:51.254Z,6.80
2022-10-20T07:47:54.480Z,6.15
2022-10-20T07:49:02.730Z,5.22
2022-10-20T07:50:14.178Z,5.93
2022-10-20T07:51:24.824Z,7.13
2022-10-20T07:52:30.376Z,6.13
2022-10-20T07:53:33.358Z,5.80
2022-10-20T07:54:36.351Z,6.22
2022-10-20T07:55:39.430Z,6.25
2022-10-20T07:56:43.635Z,6.28
2022-10-20T07:57:47.004Z,7.00
2022-10-20T07:58:49.612Z,6.35
2022-10-20T07:59:52.361Z,5.97
2022-10-20T08:00:54.795Z,6.28
2022-10-20T08:01:59.653Z,6.22
2022-10-20T08:03:02.696Z,6.70
2022-10-20T08:04:05.352Z,6.10
2022-10-20T08:05:08.760Z,5.72
2022-10-20T08:06:11.196Z,5.72
2022-10-20T08:07:13.774Z,6.47
2022-10-20T08:08:16.371Z,6.72
2022-10-20T08:09:19.062Z,5.55
2022-10-20T08:10:21.578Z,5.35
2022-10-20T08:11:24.548Z,5.28
2022-10-20T08:12:26.997Z,5.10
2022-10-20T08:13:29.950Z,5.07
2022-10-20T08:14:33.773Z,5.40
2022-10-20T08:15:38.627Z,5.20
2022-10-20T08:16:42.813Z,5.45
2022-10-20T08:17:45.397Z,5.18
2022-10-20T08:18:53.396Z,4.85
2022-10-20T08:21:17.979Z,5.47
2022-10-20T08:22:20.561Z,5.00
2022-10-20T08:23:23.142Z,5.68
2022-10-20T08:24:25.747Z,6.55
2022-10-20T08:25:28.367Z,6.07
2022-10-20T08:26:30.938Z,5.55
2022-10-20T08:27:33.858Z,5.50
2022-10-20T08:28:36.846Z,6.05
2022-10-20T08:29:39.282Z,5.88
2022-10-20T08:30:41.960Z,6.38
2022-10-20T08:31:45.357Z,12.45
2022-10-20T08:32:53.581Z,7.03
2022-10-20T08:33:56.925Z,5.05
2022-10-20T08:34:59.411Z,6.43
2022-10-20T08:36:09.356Z,5.65
2022-10-20T08:37:11.931Z,5.57
2022-10-20T08:38:14.415Z,5.47
2022-10-20T08:39:17.159Z,6.07
2022-10-20T08:40:23.525Z,5.72
2022-10-20T08:41:43.401Z,5.20
2022-10-20T08:42:56.903Z,5.50
2022-10-20T08:43:59.822Z,6.10
2022-10-20T08:45:02.664Z,6.07
2022-10-20T08:46:05.436Z,6.38
2022-10-20T08:47:36.004Z,5.97
2022-10-20T08:48:39.211Z,6.15
2022-10-20T08:49:41.936Z,5.97
2022-10-20T08:50:46.441Z,5.88
2022-10-20T08:51:49.118Z,5.53
2022-10-20T08:52:54.604Z,5.15
2022-10-20T08:53:59.768Z,6.00
2022-10-20T08:55:04.699Z,4.78
2022-10-20T08:56:12.232Z,6.10
2022-10-20T08:57:29.058Z,5.05
2022-10-20T08:58:31.663Z,4.90
2022-10-20T08:59:39.220Z,5.07
2022-10-20T09:00:43.415Z,4.30
2022-10-20T09:01:46.257Z,5.60
2022-10-20T09:02:50.500Z,5.50
2022-10-20T09:03:56.886Z,4.95
2022-10-20T09:05:00.497Z,4.78
2022-10-20T09:06:15.046Z,5.55
2022-10-20T09:07:33.051Z,4.72
2022-10-20T09:08:39.484Z,4.35
2022-10-20T09:09:42.175Z,4.63
2022-10-20T09:10:48.913Z,4.95
2022-10-20T09:11:51.794Z,5.03
2022-10-20T09:12:54.663Z,5.25
2022-10-20T09:13:57.385Z,4.40
2022-10-20T09:14:59.863Z,4.22
2022-10-20T09:16:07.947Z,4.40
2022-10-20T09:17:16.984Z,4.85
2022-10-20T09:18:19.927Z,4.47
2022-10-20T09:19:23.179Z,4.75
2022-10-20T09:20:30.111Z,4.90
2022-10-20T09:21:34.373Z,4.20
2022-10-20T09:22:37.043Z,4.50
2022-10-20T09:23:45.896Z,8.90
2022-10-20T09:24:49.388Z,4.00
2022-10-20T09:25:53.248Z,4.57
2022-10-20T09:26:59.942Z,4.35
2022-10-20T09:28:02.706Z,4.72
2022-10-20T09:29:15.850Z,4.00
2022-10-20T09:30:35.358Z,4.75
2022-10-20T09:31:40.918Z,4.40
2022-10-20T09:32:47.004Z,4.10
2022-10-20T09:33:50.252Z,4.32
2022-10-20T09:34:54.160Z,4.03
2022-10-20T09:36:17.922Z,4.05
2022-10-20T09:37:20.530Z,3.95
2022-10-20T09:38:29.476Z,3.80
2022-10-20T09:39:39.415Z,4.35
2022-10-20T09:40:55.106Z,3.78
2022-10-20T09:42:14.344Z,4.03
2022-10-20T09:43:18.205Z,4.10
2022-10-20T09:44:23.888Z,3.72
2022-10-20T09:45:28.935Z,4.05
2022-10-20T09:46:39.220Z,4.10
2022-10-20T09:47:46.814Z,3.92
2022-10-20T09:48:50.920Z,3.53
2022-10-20T09:50:01.610Z,4.25
2022-10-20T09:51:05.935Z,3.85
2022-10-20T09:52:23.733Z,4.63
2022-10-20T09:53:33.051Z,3.88
2022-10-20T09:54:35.632Z,3.92
2022-10-20T09:55:42.529Z,3.92
2022-10-20T09:56:47.115Z,3.78
2022-10-20T09:57:49.858Z,3.80
2022-10-20T09:58:52.411Z,3.22
2022-10-20T09:59:58.661Z,3.40
2022-10-20T10:01:15.448Z,3.15
2022-10-20T10:02:21.031Z,3.50
2022-10-20T10:03:24.536Z,3.42
2022-10-20T10:04:34.806Z,2.65
2022-10-20T10:05:37.710Z,2.60
2022-10-20T10:06:43.900Z,3.15
2022-10-20T10:07:58.003Z,3.55
2022-10-20T10:09:01.827Z,2.33
2022-10-20T10:10:19.306Z,2.40
2022-10-20T10:11:23.386Z,1.98
2022-10-20T10:12:27.680Z,1.88
2022-10-20T10:13:36.008Z,1.80
2022-10-20T10:14:47.351Z,1.85
2022-10-20T10:16:02.798Z,1.63
2022-10-20T10:17:05.390Z,2.13
2022-10-20T10:18:16.070Z,2.25
2022-10-20T10:19:23.112Z,2.13
2022-10-20T10:20:33.976Z,2.80
2022-10-20T10:21:45.677Z,2.38
2022-10-20T10:22:50.511Z,2.20
2022-10-20T10:24:01.204Z,2.80
2022-10-20T10:26:42.629Z,1.98
2022-10-20T10:28:09.178Z,1.90
2022-10-20T10:29:18.810Z,1.85
2022-10-20T10:30:38.324Z,2.10
2022-10-20T10:31:51.246Z,2.13
2022-10-20T10:32:54.150Z,3.05
2022-10-20T10:34:16.946Z,1.90
2022-10-20T10:35:32.969Z,2.30
2022-10-20T10:36:36.628Z,2.00
2022-10-20T10:37:41.985Z,1.83
2022-10-20T10:38:44.957Z,2.28
2022-10-20T10:39:47.905Z,2.28
2022-10-20T10:41:20.207Z,1.98
2022-10-20T10:42:46.920Z,2.03
2022-10-20T10:44:05.641Z,2.30
2022-10-20T10:45:22.968Z,2.00
2022-10-20T10:47:02.471Z,2.25
2022-10-20T10:48:25.757Z,1.83
2022-10-20T10:49:52.122Z,2.00
2022-10-20T10:50:58.897Z,1.67
2022-10-20T10:52:20.286Z,1.85
2022-10-20T10:53:52.025Z,1.95
2022-10-20T10:55:01.800Z,1.58
2022-10-20T10:56:24.820Z,2.28
2022-10-20T10:57:53.360Z,2.33
2022-10-20T10:59:01.859Z,2.10
2022-10-20T11:00:13.249Z,2.10
2022-10-20T11:01:48.182Z,1.88
2022-10-20T11:03:11.059Z,1.77
2022-10-20T11:04:31.228Z,1.30
2022-10-20T11:05:53.196Z,0.82
2022-10-20T11:07:20.298Z,0.75
2022-10-20T11:08:44.817Z,1.40
2022-10-20T11:10:10.788Z,1.40
2022-10-20T11:11:24.353Z,1.45
2022-10-20T11:12:26.849Z,1.33
2022-10-20T11:13:50.606Z,1.77
2022-10-20T11:15:41.028Z,1.90
2022-10-20T11:17:05.857Z,1.85
2022-10-20T11:18:17.229Z,1.00
2022-10-20T11:19:31.293Z,0.80
2022-10-20T11:20:58.100Z,0.90
2022-10-20T11:22:23.023Z,0.60
2022-10-20T11:23:53.006Z,0.80
2022-10-20T11:25:01.621Z,1.10
2022-10-20T11:26:09.576Z,1.02
2022-10-20T11:27:16.334Z,0.85
2022-10-20T11:28:25.771Z,1.10
2022-10-20T11:29:42.858Z,0.68
2022-10-20T11:30:45.289Z,0.50
2022-10-20T11:32:17.051Z,0.52
2022-10-20T11:33:23.837Z,0.40
2022-10-20T11:34:49.460Z,0.60
2022-10-20T11:36:16.778Z,0.55
2022-10-20T11:37:26.903Z,0.68
2022-10-20T11:38:35.275Z,0.47
2022-10-20T11:39:45.604Z,0.47
2022-10-20T11:40:57.913Z,0.52
2022-10-20T11:42:14.883Z,0.30
2022-10-20T11:43:23.517Z,0.30
2022-10-20T11:44:32.352Z,0.30
2022-10-20T11:45:54.263Z,0.38
2022-10-20T11:47:01.768Z,0.20
2022-10-20T11:48:30.648Z,0.38
2022-10-20T11:49:33.907Z,0.40
2022-10-20T11:50:36.611Z,0.40
2022-10-20T11:52:05.810Z,0.40
2022-10-20T11:53:23.105Z,0.60
2022-10-20T11:54:50.584Z,0.50
2022-10-20T11:56:19.925Z,0.50
2022-10-20T11:57:43.491Z,0.65
2022-10-20T11:59:07.272Z,0.80
2022-10-20T12:00:30.813Z,0.60
2022-10-20T12:01:56.282Z,0.80
2022-10-20T12:03:40.121Z,0.60
2022-10-20T12:04:45.598Z,0.60
2022-10-20T12:06:15.389Z,0.57
2022-10-20T12:07:32.607Z,0.60
2022-10-20T12:08:44.113Z,0.70
2022-10-20T12:10:11.419Z,0.70
2022-10-20T12:11:34.824Z,0.45
2022-10-20T12:12:43.179Z,0.50
2022-10-20T12:14:14.959Z,0.55
2022-10-20T12:15:25.519Z,0.50
2022-10-20T12:16:55.787Z,0.45
2022-10-20T12:18:06.021Z,0.75
2022-10-20T12:19:17.992Z,0.70
2022-10-20T12:20:20.440Z,0.40
2022-10-20T12:22:00.817Z,0.68
2022-10-20T12:23:03.329Z,0.88
2022-10-20T12:24:36.567Z,0.60
2022-10-20T12:25:41.118Z,0.90
2022-10-20T12:27:05.458Z,0.90
2022-10-20T12:28:23.010Z,0.90
2022-10-20T12:29:31.253Z,1.27
2022-10-20T12:30:39.830Z,0.70
2022-10-20T12:32:21.264Z,0.73
2022-10-20T12:33:44.819Z,1.00
2022-10-20T12:34:49.028Z,0.90
2022-10-20T12:36:00.588Z,1.02
2022-10-20T12:37:16.156Z,0.88
2022-10-20T12:38:19.136Z,0.88
2022-10-20T12:39:25.021Z,0.68
2022-10-20T12:40:58.039Z,0.90
2022-10-20T12:42:02.467Z,0.68
2022-10-20T12:43:05.119Z,0.90
2022-10-20T12:44:15.847Z,0.90
2022-10-20T12:45:18.602Z,0.98
2022-10-20T12:46:23.497Z,0.77
2022-10-20T12:47:28.479Z,0.82
2022-10-20T12:48:34.646Z,0.88
2022-10-20T12:49:40.282Z,0.70
2022-10-20T12:50:49.940Z,0.93
2022-10-20T12:51:53.500Z,1.13
2022-10-20T12:52:58.055Z,0.70
2022-10-20T12:54:04.910Z,1.15
2022-10-20T12:55:15.079Z,0.88
2022-10-20T12:56:19.971Z,1.20
2022-10-20T12:57:45.213Z,0.82
2022-10-20T12:59:08.254Z,0.73
2022-10-20T13:00:33.601Z,1.00
2022-10-20T13:02:10.305Z,0.90
2022-10-20T13:03:31.451Z,0.80
2022-10-20T13:05:01.540Z,1.08
2022-10-20T13:06:23.905Z,0.82
2022-10-20T13:07:48.292Z,0.70
2022-10-20T13:09:03.230Z,0.80
2022-10-20T13:10:29.148Z,0.82
2022-10-20T13:11:37.836Z,1.20
2022-10-20T13:12:40.600Z,1.00
2022-10-20T13:13:58.715Z,1.00
2022-10-20T13:15:10.404Z,0.95
2022-10-20T13:16:17.911Z,0.75
2022-10-20T13:17:24.325Z,1.15
2022-10-20T13:18:34.122Z,1.33
2022-10-20T13:19:46.874Z,1.02
2022-10-20T13:20:59.726Z,0.90
2022-10-20T13:22:32.036Z,1.27
2022-10-20T13:23:38.219Z,0.82
2022-10-20T13:24:44.798Z,1.00
2022-10-20T13:25:58.059Z,1.00
2022-10-20T13:27:05.137Z,1.10
2022-10-20T13:28:13.276Z,1.00
2022-10-20T13:29:27.233Z,1.00
2022-10-20T13:30:30.782Z,0.75
2022-10-20T13:32:04.199Z,0.93
2022-10-20T13:33:34.461Z,1.20
2022-10-20T13:35:16.481Z,0.60
2022-10-20T13:36:42.543Z,0.90
2022-10-20T13:37:53.319Z,0.95
2022-10-20T13:40:22.626Z,0.95
2022-10-20T13:41:42.517Z,0.90
2022-10-20T13:43:08.073Z,0.77
2022-10-20T13:44:37.151Z,1.00
2022-10-20T13:46:06.552Z,0.88
2022-10-20T13:47:35.273Z,0.98
2022-10-20T13:49:03.044Z,0.90
2022-10-20T13:50:40.834Z,1.23
2022-10-20T13:51:59.098Z,1.00
2022-10-20T13:53:22.716Z,1.27
2022-10-20T13:54:29.974Z,1.13
2022-10-20T13:55:53.467Z,1.00
2022-10-20T13:57:00.301Z,1.02
2022-10-20T13:58:16.864Z,1.10
2022-10-20T14:01:36.539Z,0.90
2022-10-20T14:02:39.462Z,1.08
2022-10-20T14:03:44.448Z,1.10
2022-10-20T14:04:47.138Z,1.10
2022-10-20T14:05:49.897Z,1.08
2022-10-20T14:06:53.228Z,1.15
2022-10-20T14:07:56.405Z,1.25
2022-10-20T14:09:09.314Z,1.15
2022-10-20T14:10:25.518Z,1.30
2022-10-20T14:11:31.925Z,1.10
2022-10-20T14:12:34.948Z,1.30
2022-10-20T14:13:38.170Z,1.38
2022-10-20T14:14:43.918Z,1.20
2022-10-20T14:15:49.338Z,0.98
2022-10-20T14:16:58.637Z,1.73
2022-10-20T14:18:08.515Z,1.13
2022-10-20T14:19:13.718Z,1.23
2022-10-20T14:20:21.818Z,0.82
2022-10-20T14:21:24.314Z,1.30
2022-10-20T14:22:26.855Z,1.52
2022-10-20T14:23:41.962Z,1.50
2022-10-20T14:24:46.563Z,1.20
2022-10-20T14:25:50.653Z,1.45
2022-10-20T14:26:53.476Z,1.40
2022-10-20T14:27:57.080Z,2.13
2022-10-20T14:29:02.029Z,1.27
2022-10-20T14:30:06.088Z,1.20
2022-10-20T14:31:10.746Z,1.40
2022-10-20T14:32:27.734Z,1.48
2022-10-20T14:33:41.238Z,1.05
2022-10-20T14:34:58.857Z,1.17
2022-10-20T14:36:02.777Z,1.20
2022-10-20T14:37:07.110Z,1.45
2022-10-20T14:38:19.592Z,1.58
2022-10-20T14:39:39.648Z,2.42
2022-10-20T14:40:42.703Z,1.80
2022-10-20T14:41:46.464Z,1.70
2022-10-20T14:42:49.095Z,1.92
2022-10-20T14:43:54.633Z,2.58
2022-10-20T14:44:58.587Z,2.50
2022-10-20T14:46:02.857Z,2.08
2022-10-20T14:47:06.056Z,1.98
2022-10-20T14:48:14.927Z,1.83
2022-10-20T14:49:19.130Z,2.47
2022-10-20T14:50:35.231Z,1.92
2022-10-20T14:51:40.884Z,2.05
2022-10-20T14:52:43.656Z,2.15
2022-10-20T14:53:47.076Z,2.47
2022-10-20T14:54:52.595Z,2.10
2022-10-20T14:55:55.853Z,2.08
2022-10-20T14:57:00.897Z,1.67
2022-10-20T14:58:03.526Z,2.00
2022-10-20T14:59:17.987Z,1.83
2022-10-20T15:00:32.526Z,1.77
2022-10-20T15:01:35.094Z,1.30
2022-10-20T15:02:41.543Z,1.20
2022-10-20T15:03:44.750Z,1.33
2022-10-20T15:04:48.979Z,1.10
2022-10-20T15:05:52.574Z,1.30
2022-10-20T15:07:05.271Z,1.02
2022-10-20T15:08:24.546Z,1.58
2022-10-20T15:09:31.567Z,1.40
2022-10-20T15:10:34.059Z,1.73